Crestview, FL

12:54 PM CST on November 23, 2014 (GMT -0600)
Sikes | Change Station
CLOSE
Current Station
Airport
Location: Crestview,
Elevation: 213 ft
Nearby Weather Stations
Active Advisory: Wind Advisory

Elev 213 ft 30.78 °N, 86.52 °W | Updated 44 minutes ago

Rain
Rain
69 °F
Feels Like 69 °F
N
14
Wind Variable Wind from West
Gusts 36 mph

Today
High -- | Low -- °F
--% Chance of Precip.
Yesterday
High -- | Low -- °F
Precip. -- in
6:19 AM 4:45 PM
New Moon, 2% visible
Pressure 29.74 in
Visibility 10.0 miles
Clouds Scattered Clouds 1300 ft
Mostly Cloudy 4700 ft
Overcast 5500 ft
Dew Point 69 °F
Humidity 100%
Rainfall 0.11 in
Snow Depth Not available.
UV 2 out of 12
Pollen .40 out of 12
Air Quality Not available.
Flu Activity Not available.
METAR KCEW 231810Z AUTO 26012G31KT 10SM -RA SCT013 BKN047 OVC055 21/21 A2974 RMK AO2 PK WND 23038/1800 WSHFT 1750 LTG DSNT NE-S P0000 T02060206 $

More Conditions Fewer Conditions

Pressure 29.74 in
Visibility 10.0 miles
Clouds Scattered Clouds 1300 ft
Mostly Cloudy 4700 ft
Overcast 5500 ft
Dew Point 69 °F
Humidity 100%
Rainfall 0.11 in
Snow Depth Not available.
UV 2 out of 12
Pollen .40 out of 12
Air Quality Not available.
Flu Activity Not available.
METAR KCEW 231810Z AUTO 26012G31KT 10SM -RA SCT013 BKN047 OVC055 21/21 A2974 RMK AO2 PK WND 23038/1800 WSHFT 1750 LTG DSNT NE-S P0000 T02060206 $

More Conditions Fewer Conditions

10-Day Weather Forecast

Almanac

Astronomy

Nov. 23, 2014 Rise Set
Actual Time
Civil Twilight
Nautical Twilight
Astronomical Twilight
Moon
Length of Visible Light
Length of Day
Tomorrow will be .
, % of the Moon is Illuminated

Today's Extremes

State Highs State Lows

Community

WunderPhotos

Upload Photos

1,773,127 photos uploaded!

WunderBlogs® & News

Nearby

Air Quality

  Air Quality AQ Index Pollutant
Not available.

Snow Depth

Station Depth Elevation

Earthquake Activity

City Distance Mag. Time & Date
Minimum magnitude displayed is 2.5.

Coastal Water Temperatures

Place Temperature

Nearby Weather Stations